2D5

Oakes Municipal Airport

Oakes, North Dakota, USA
METAR K2D5 230915Z AUTO 20006KT 10SM 02/02 A3017 RMK AO2 PWINO
Observed Flight Rules
Apr-23 @ 09:15 UTC (10 minutes ago)
Wind Visibility
200° at 6 knots 10 miles
Temperatures Readings
Current 2°C / 36°F
Dewpoint 2°C / 36°F
Humidity 100%
Altimeter 30.17" Hg
Pressure 1022 hPa
Elevation 407
METAR K2D5 230915Z AUTO 20006KT 10SM 02/02 A3017 RMK AO2 PWINO
Observed Flight Rules
Apr-23 @ 09:15 UTC
(10 minutes ago)
Wind Visibility
200° at 6 knots 10 miles
Temperature Dewpoint
2°C / 36°F 2°C / 36°F
Humidity Altimeter Pressure
100% 30.17" Hg 1022 hPa